Time;durP1;ratioP1;P1;durP2;ratioP2;P2;SDS_P1;SDS_P2;PMS_P1;PMS_P2;Temp;Humidity;BMP_temperature;BMP_pressure;BME280_temperature;BME280_humidity;BME280_pressure;Samples;Min_cycle;Max_cycle;Signal;HPM_P1;HPM_P2
2023/09/26 06:44:16;;;;;;;5.97;3.05;;;;;;;12.21;76.01;97117.22;2109004;27;20580;-63
2023/09/26 06:46:24;;;;;;;6.22;3.45;;;;;;;12.00;75.85;97123.34;2090300;28;20565;-64
2023/09/26 06:47:26;;;;;;;5.82;2.72;;;;;;;12.47;75.27;97119.59;2086981;28;20217;-64
2023/09/26 06:48:27;;;;;;;6.15;2.83;;;;;;;12.47;75.03;97120.44;2085570;28;20204;-64
2023/09/26 06:49:29;;;;;;;6.80;3.30;;;;;;;12.57;74.61;97120.91;2086343;28;20219;-64
2023/09/26 06:50:31;;;;;;;3.88;2.30;;;;;;;12.85;74.28;97123.09;2086639;28;20254;-64
2023/09/26 06:51:33;;;;;;;3.35;2.25;;;;;;;12.79;74.02;97119.91;2085427;28;20195;-64
2023/09/26 06:52:34;;;;;;;7.45;3.17;;;;;;;12.98;74.38;97120.75;2083348;28;20220;-64
2023/09/26 06:53:36;;;;;;;5.90;3.13;;;;;;;13.38;73.45;97118.03;2081055;28;20229;-64
2023/09/26 06:54:38;;;;;;;4.38;2.67;;;;;;;13.52;72.20;97118.22;2086541;28;20636;-64
2023/09/26 06:55:39;;;;;;;6.68;2.67;;;;;;;13.54;72.43;97118.13;2085737;28;20540;-65
2023/09/26 06:56:41;;;;;;;10.68;2.25;;;;;;;13.68;72.46;97122.72;2084313;28;20207;-64
2023/09/26 06:57:42;;;;;;;5.40;3.00;;;;;;;13.94;71.72;97126.66;2084633;28;20204;-64
2023/09/26 06:58:44;;;;;;;8.05;2.70;;;;;;;14.13;71.47;97125.69;2085375;28;20291;-64
2023/09/26 06:59:52;;;;;;;7.18;2.58;;;;;;;14.59;69.84;97118.06;2085630;28;20196;-65
2023/09/26 07:00:54;;;;;;;10.23;2.95;;;;;;;14.84;69.08;97125.50;2086493;28;20538;-64
2023/09/26 07:01:55;;;;;;;6.00;2.88;;;;;;;15.10;68.48;97122.38;2085373;28;20722;-64
2023/09/26 07:02:57;;;;;;;6.07;2.45;;;;;;;15.58;66.73;97122.31;2083473;28;20220;-64
2023/09/26 07:03:58;;;;;;;6.93;2.72;;;;;;;15.74;66.67;97125.75;2083061;28;20239;-64
2023/09/26 07:05:00;;;;;;;5.88;2.75;;;;;;;15.64;66.39;97121.97;2085956;28;20205;-64
2023/09/26 07:06:08;;;;;;;9.57;2.47;;;;;;;15.76;66.30;97120.41;2083846;28;20216;-65
2023/09/26 07:07:10;;;;;;;8.60;2.65;;;;;;;15.61;66.59;97125.63;2083048;28;20220;-64
2023/09/26 07:08:12;;;;;;;7.30;3.17;;;;;;;15.72;66.38;97124.16;2088907;28;20200;-65
2023/09/26 07:09:14;;;;;;;7.45;2.63;;;;;;;15.61;66.74;97124.78;2090073;28;20207;-64
2023/09/26 07:10:16;;;;;;;11.88;3.47;;;;;;;15.96;65.61;97128.03;2086460;28;20205;-65
2023/09/26 07:11:17;;;;;;;4.00;2.40;;;;;;;16.22;64.93;97123.00;2086408;28;20309;-64
2023/09/26 07:12:19;;;;;;;3.53;2.50;;;;;;;16.38;64.63;97125.56;2085895;28;20224;-65
2023/09/26 07:13:20;;;;;;;7.43;3.00;;;;;;;16.35;64.61;97125.72;2086614;28;20242;-65
2023/09/26 07:14:42;;;;;;;6.07;2.40;;;;;;;16.69;64.20;97128.94;2085897;28;20208;-65
2023/09/26 07:15:43;;;;;;;10.98;2.83;;;;;;;17.02;63.27;97137.53;2086095;28;20758;-65
2023/09/26 07:16:46;;;;;;;5.03;2.55;;;;;;;16.78;63.42;97127.53;2085690;28;20240;-65
2023/09/26 07:17:48;;;;;;;10.63;3.30;;;;;;;16.78;63.92;97123.09;2085571;28;20201;-65
2023/09/26 07:18:50;;;;;;;5.78;2.90;;;;;;;16.92;63.90;97127.53;2085273;28;20201;-65
2023/09/26 07:19:52;;;;;;;10.00;3.17;;;;;;;16.83;64.13;97130.72;2083848;28;20204;-65
2023/09/26 07:20:54;;;;;;;9.02;3.33;;;;;;;17.01;63.29;97126.13;2084788;28;20287;-65
2023/09/26 07:21:55;;;;;;;9.30;3.72;;;;;;;16.91;63.84;97130.28;2084869;28;20200;-65
2023/09/26 07:22:57;;;;;;;6.78;3.58;;;;;;;17.25;62.79;97128.16;2086614;28;20536;-65
2023/09/26 07:23:59;;;;;;;10.32;3.65;;;;;;;16.98;62.84;97121.88;2086863;28;20200;-65
2023/09/26 07:25:04;;;;;;;13.77;3.47;;;;;;;17.04;63.36;97125.94;2086324;28;20279;-65
2023/09/26 07:26:17;;;;;;;12.00;4.35;;;;;;;17.49;62.08;97128.34;2085966;28;20291;-65
2023/09/26 07:27:19;;;;;;;10.00;3.58;;;;;;;17.65;61.68;97120.28;2085541;28;20619;-64
2023/09/26 07:28:20;;;;;;;10.80;4.22;;;;;;;17.63;61.68;97122.16;2086467;28;20275;-65
2023/09/26 07:29:23;;;;;;;11.05;3.30;;;;;;;18.21;60.82;97129.84;2086843;28;20206;-65
2023/09/26 07:30:24;;;;;;;13.57;3.55;;;;;;;18.26;60.49;97125.91;2084524;28;20196;-65
2023/09/26 07:31:26;;;;;;;18.98;4.10;;;;;;;18.41;60.02;97120.53;2083252;28;20529;-65
2023/09/26 07:32:29;;;;;;;10.02;3.47;;;;;;;18.99;59.28;97123.56;2083513;28;20224;-65
2023/09/26 07:33:32;;;;;;;8.48;4.18;;;;;;;19.11;58.58;97121.00;2087586;28;20671;-65
2023/09/26 07:34:36;;;;;;;9.25;3.60;;;;;;;19.20;58.45;97128.28;2086131;28;20196;-65
2023/09/26 07:35:37;;;;;;;7.65;3.90;;;;;;;19.30;58.45;97128.44;2084000;28;20224;-65
2023/09/26 07:36:39;;;;;;;7.55;3.40;;;;;;;19.08;58.86;97119.41;2084668;28;20200;-65
2023/09/26 07:37:41;;;;;;;9.45;3.92;;;;;;;19.10;58.98;97125.44;2086237;28;20205;-65
2023/09/26 07:38:43;;;;;;;13.77;3.75;;;;;;;18.96;59.16;97125.56;2084182;28;20552;-65
2023/09/26 07:39:49;;;;;;;20.85;3.70;;;;;;;18.81;59.40;97130.13;2086086;28;20292;-65
2023/09/26 07:40:50;;;;;;;43.53;4.30;;;;;;;18.80;59.62;97121.34;2082763;28;20632;-65
2023/09/26 07:41:52;;;;;;;16.88;4.40;;;;;;;18.87;59.77;97121.78;2084016;28;20980;-65
2023/09/26 07:42:53;;;;;;;20.23;4.00;;;;;;;18.70;60.52;97128.22;2085607;28;20201;-65
2023/09/26 07:43:55;;;;;;;14.82;3.67;;;;;;;19.36;59.19;97120.06;2085767;28;20196;-65
2023/09/26 07:44:58;;;;;;;25.33;4.15;;;;;;;19.81;57.96;97119.44;2084972;28;20246;-65
2023/09/26 07:46:07;;;;;;;16.10;3.75;;;;;;;20.83;55.63;97119.69;2085804;28;20817;-65
2023/09/26 07:47:08;;;;;;;17.13;4.57;;;;;;;20.39;56.53;97120.34;2082802;28;20227;-65
2023/09/26 07:48:10;;;;;;;15.00;3.78;;;;;;;20.86;56.10;97122.06;2084739;28;20204;-65
2023/09/26 07:49:13;;;;;;;25.95;3.95;;;;;;;20.86;55.96;97122.06;2083897;28;20218;-65
2023/09/26 07:50:14;;;;;;;22.17;3.67;;;;;;;20.03;57.30;97121.34;2084665;28;20295;-65
2023/09/26 07:51:19;;;;;;;27.50;4.05;;;;;;;20.41;57.14;97125.53;2085738;28;20815;-65
2023/09/26 07:52:25;;;;;;;9.95;2.90;;;;;;;20.60;56.97;97124.94;2078069;28;20739;-65
2023/09/26 07:53:27;;;;;;;18.92;3.20;;;;;;;20.90;56.05;97126.19;2076878;28;20198;-65
2023/09/26 07:54:31;;;;;;;25.48;3.85;;;;;;;21.60;54.70;97131.28;2075390;28;20222;-65
2023/09/26 07:55:32;;;;;;;16.13;3.60;;;;;;;21.56;54.43;97130.72;2078078;28;20208;-65
2023/09/26 07:56:33;;;;;;;14.43;3.15;;;;;;;21.78;54.41;97126.28;2078421;28;20711;-66
2023/09/26 07:57:35;;;;;;;15.82;3.67;;;;;;;21.44;54.59;97134.31;2073324;28;20229;-65
2023/09/26 07:58:37;;;;;;;9.18;2.80;;;;;;;22.06;54.54;97124.81;2072859;28;20228;-66
2023/09/26 07:59:38;;;;;;;17.92;3.28;;;;;;;22.22;53.04;97132.34;2072102;28;20236;-65
2023/09/26 08:00:40;;;;;;;10.85;2.95;;;;;;;21.99;54.03;97131.59;2070066;28;20202;-65
2023/09/26 08:01:42;;;;;;;13.02;3.17;;;;;;;21.85;54.76;97136.28;2070914;28;20205;-66
2023/09/26 08:02:43;;;;;;;12.73;3.45;;;;;;;21.78;54.36;97129.78;2069342;28;20297;-65
2023/09/26 08:03:45;;;;;;;14.48;3.22;;;;;;;21.75;54.68;97130.03;2071259;28;20206;-66
2023/09/26 08:04:47;;;;;;;14.90;3.20;;;;;;;22.24;53.98;97129.56;2071631;28;20198;-66
2023/09/26 08:05:49;;;;;;;9.33;3.33;;;;;;;21.93;54.27;97129.44;2070586;28;20204;-66
2023/09/26 08:06:50;;;;;;;10.90;3.03;;;;;;;22.11;54.42;97124.44;2071950;28;20470;-66
2023/09/26 08:07:52;;;;;;;12.63;3.60;;;;;;;22.52;53.95;97127.25;2071126;28;20517;-66
2023/09/26 08:08:53;;;;;;;17.50;2.90;;;;;;;22.85;53.24;97122.63;2070999;28;20434;-65
2023/09/26 08:10:00;;;;;;;8.33;3.53;;;;;;;22.91;53.20;97128.25;2070256;28;20423;-66
2023/09/26 08:11:10;;;;;;;23.83;3.00;;;;;;;23.37;52.56;97122.53;2072119;28;21095;-66
2023/09/26 08:12:11;;;;;;;9.73;3.07;;;;;;;23.74;52.07;97120.03;2071607;28;21288;-66
2023/09/26 08:13:15;;;;;;;10.60;2.53;;;;;;;24.31;51.10;97122.00;2072081;28;20427;-66
2023/09/26 08:14:16;;;;;;;10.33;3.20;;;;;;;24.52;49.86;97119.16;2071524;28;20993;-66
2023/09/26 08:15:18;;;;;;;16.17;3.30;;;;;;;24.11;50.77;97124.72;2069333;28;20544;-66
2023/09/26 08:16:21;;;;;;;11.13;3.20;;;;;;;24.12;50.84;97123.72;2069321;28;21326;-66
2023/09/26 08:17:24;;;;;;;6.10;2.57;;;;;;;23.73;51.48;97122.84;2069437;28;20466;-66
2023/09/26 08:18:25;;;;;;;6.00;2.60;;;;;;;24.29;50.84;97129.34;2070533;28;20435;-66
2023/09/26 08:19:27;;;;;;;10.00;2.60;;;;;;;24.59;50.27;97124.75;2070659;28;20427;-66
2023/09/26 08:20:29;;;;;;;8.97;2.70;;;;;;;24.72;50.21;97122.66;2071872;28;20427;-66
2023/09/26 08:21:31;;;;;;;8.60;2.90;;;;;;;25.09;49.41;97129.78;2071895;28;20432;-66
2023/09/26 08:22:32;;;;;;;7.20;2.40;;;;;;;24.62;50.28;97124.47;2071372;28;20517;-66
2023/09/26 08:23:34;;;;;;;10.90;2.33;;;;;;;24.62;50.47;97130.66;2072509;28;20423;-66
2023/09/26 08:24:35;;;;;;;7.07;2.13;;;;;;;25.34;49.17;97124.72;2070423;28;20420;-66
2023/09/26 08:25:36;;;;;;;7.70;2.33;;;;;;;25.36;48.75;97127.31;2069657;28;20486;-66
2023/09/26 08:26:38;;;;;;;3.63;1.93;;;;;;;25.18;49.54;97121.84;2070575;28;20427;-67
2023/09/26 08:27:40;;;;;;;5.70;2.37;;;;;;;25.17;49.77;97125.53;2071141;28;20434;-66
2023/09/26 08:28:42;;;;;;;6.47;2.20;;;;;;;25.54;48.68;97136.16;2071560;28;20427;-65
2023/09/26 08:29:43;;;;;;;11.13;2.43;;;;;;;25.36;48.92;97125.47;2071429;28;20427;-66
2023/09/26 08:30:45;;;;;;;6.70;2.20;;;;;;;24.86;49.93;97120.47;2071338;28;20431;-65
2023/09/26 08:31:46;;;;;;;5.43;2.50;;;;;;;24.84;50.08;97136.66;2071067;28;20430;-66
2023/09/26 08:32:48;;;;;;;5.10;2.27;;;;;;;24.10;51.09;97125.69;2071718;28;20621;-66
2023/09/26 08:33:49;;;;;;;7.00;2.43;;;;;;;24.43;51.27;97130.72;2072237;28;20435;-66
2023/09/26 08:34:52;;;;;;;4.17;1.97;;;;;;;24.74;50.75;97133.19;2072964;28;20438;-66
2023/09/26 08:35:53;;;;;;;5.80;2.33;;;;;;;24.59;50.07;97130.09;2071978;28;21208;-66
2023/09/26 08:36:55;;;;;;;11.63;2.23;;;;;;;24.79;50.70;97125.56;2071913;28;20474;-66
2023/09/26 08:37:56;;;;;;;3.80;1.87;;;;;;;25.39;49.82;97119.78;2077708;28;20809;-66
2023/09/26 08:38:59;;;;;;;7.67;2.43;;;;;;;25.39;49.53;97126.97;2074319;28;20426;-66
2023/09/26 08:40:03;;;;;;;6.00;2.83;;;;;;;25.59;49.25;97119.69;2072074;28;20914;-66
2023/09/26 08:41:05;;;;;;;7.80;2.30;;;;;;;25.85;49.13;97121.59;2074709;28;20423;-66
2023/09/26 08:42:08;;;;;;;6.38;3.17;;;;;;;25.35;49.30;97121.06;2071829;28;20451;-66
2023/09/26 08:43:12;;;;;;;8.38;2.78;;;;;;;25.88;48.56;97121.31;2072514;28;20202;-66
2023/09/26 08:44:14;;;;;;;8.57;2.83;;;;;;;25.42;49.25;97116.84;2071447;28;20207;-66
2023/09/26 08:45:15;;;;;;;6.93;2.53;;;;;;;24.52;51.33;97118.28;2070919;28;20642;-66
2023/09/26 08:46:17;;;;;;;12.00;2.20;;;;;;;24.85;50.85;97124.13;2071764;28;20238;-66
2023/09/26 08:47:23;;;;;;;6.00;2.80;;;;;;;25.48;49.77;97120.72;2071301;28;20677;-66
2023/09/26 08:48:25;;;;;;;6.95;2.13;;;;;;;25.23;49.83;97112.41;2072182;28;20194;-66
2023/09/26 08:49:27;;;;;;;5.38;2.58;;;;;;;25.29;49.89;97116.31;2072287;28;20204;-66
2023/09/26 08:50:28;;;;;;;7.97;2.67;;;;;;;24.83;50.22;97116.25;2070023;28;20197;-67
2023/09/26 08:51:30;;;;;;;4.75;2.40;;;;;;;25.40;50.23;97115.31;2072307;28;20194;-67
2023/09/26 08:52:33;;;;;;;8.18;2.65;;;;;;;25.88;49.03;97121.31;2071699;28;20221;-67
2023/09/26 08:53:35;;;;;;;7.50;2.92;;;;;;;25.68;49.08;97123.28;2071159;28;20201;-66
2023/09/26 08:54:36;;;;;;;6.75;2.75;;;;;;;24.90;50.47;97113.84;2071405;28;20669;-67
2023/09/26 08:55:39;;;;;;;11.13;2.97;;;;;;;25.56;49.21;97114.63;2071149;28;20293;-66
2023/09/26 08:56:40;;;;;;;11.63;2.80;;;;;;;25.88;48.07;97115.94;2070196;28;20771;-66
2023/09/26 08:57:46;;;;;;;5.35;2.97;;;;;;;24.66;50.40;97117.03;2070415;28;20251;-66
2023/09/26 08:58:50;;;;;;;8.50;3.05;;;;;;;25.19;50.30;97118.19;2070823;28;20572;-67
2023/09/26 08:59:54;;;;;;;4.85;2.10;;;;;;;25.51;48.89;97116.91;2069910;28;20649;-66
2023/09/26 09:00:56;;;;;;;10.05;2.97;;;;;;;25.24;49.18;97116.78;2070421;28;20669;-66
2023/09/26 09:01:57;;;;;;;6.43;2.70;;;;;;;23.87;52.48;97111.78;2071312;28;20229;-66
2023/09/26 09:02:59;;;;;;;12.10;2.50;;;;;;;25.07;50.81;97118.41;2070220;28;20642;-66
2023/09/26 09:04:01;;;;;;;6.20;2.90;;;;;;;26.17;48.98;97122.88;2071740;28;20230;-66
2023/09/26 09:05:03;;;;;;;5.20;2.20;;;;;;;26.44;47.98;97121.94;2071746;28;20198;-68
2023/09/26 09:06:05;;;;;;;7.18;2.80;;;;;;;26.35;48.04;97118.34;2071209;28;20232;-67
2023/09/26 09:07:07;;;;;;;5.70;2.85;;;;;;;26.60;47.42;97125.72;2070483;28;20279;-67
2023/09/26 09:08:15;;;;;;;4.45;2.42;;;;;;;27.10;46.07;97116.13;2069752;28;20351;-66
2023/09/26 09:09:17;;;;;;;5.13;3.00;;;;;;;27.17;46.40;97120.69;2070425;28;20198;-67
2023/09/26 09:10:18;;;;;;;10.98;2.70;;;;;;;26.32;46.79;97112.47;2070499;28;20766;-67
2023/09/26 09:11:33;;;;;;;7.28;2.80;;;;;;;25.96;48.25;97117.84;2069904;28;20209;-67
2023/09/26 09:12:37;;;;;;;4.50;2.58;;;;;;;26.08;48.25;97120.16;2071063;28;20228;-67
2023/09/26 09:13:39;;;;;;;4.20;2.08;;;;;;;26.21;47.97;97117.09;2070761;28;20217;-67
2023/09/26 09:14:41;;;;;;;5.32;2.25;;;;;;;26.81;47.83;97110.13;2072507;28;20198;-67
2023/09/26 09:15:42;;;;;;;4.07;2.42;;;;;;;26.82;47.11;97110.97;2071162;28;20751;-67
2023/09/26 09:16:53;;;;;;;4.72;2.95;;;;;;;27.34;46.46;97115.38;2070217;28;20202;-67
2023/09/26 09:17:55;;;;;;;4.40;2.50;;;;;;;27.18;46.77;97108.94;2071538;28;20193;-67
2023/09/26 09:18:58;;;;;;;5.22;2.70;;;;;;;26.96;46.77;97115.72;2069676;28;20201;-67
2023/09/26 09:20:00;;;;;;;3.63;1.98;;;;;;;27.41;46.50;97113.72;2071482;28;20248;-67
2023/09/26 09:21:30;;;;;;;4.65;2.30;;;;;;;27.79;45.73;97110.63;2071077;28;20649;-69
2023/09/26 09:22:32;;;;;;;6.82;3.00;;;;;;;27.64;45.52;97108.59;2070073;28;20263;-69
2023/09/26 09:23:46;;;;;;;9.35;2.47;;;;;;;27.68;45.42;97111.78;2069965;28;20376;-70
2023/09/26 09:24:54;;;;;;;4.40;2.30;;;;;;;27.08;45.94;97110.91;2068302;28;20251;-69
2023/09/26 09:26:10;;;;;;;4.80;2.30;;;;;;;26.95;46.22;97107.84;2070685;28;20231;-69
2023/09/26 09:27:12;;;;;;;5.82;2.45;;;;;;;27.58;45.64;97106.56;2070490;28;20224;-70
2023/09/26 09:28:19;;;;;;;4.85;2.38;;;;;;;26.45;46.62;97109.38;2069550;28;20545;-69
2023/09/26 09:29:21;;;;;;;3.50;2.38;;;;;;;26.16;47.51;97107.84;2070732;28;20801;-69
2023/09/26 09:30:23;;;;;;;7.15;2.70;;;;;;;25.77;48.44;97106.31;2072224;28;20194;-70
2023/09/26 09:31:27;;;;;;;6.60;2.60;;;;;;;25.78;48.49;97105.31;2071587;28;20244;-69
2023/09/26 09:32:28;;;;;;;7.03;2.65;;;;;;;25.51;49.14;97103.53;2070055;28;20229;-70
2023/09/26 09:33:31;;;;;;;4.40;2.90;;;;;;;26.40;47.87;97112.53;2071427;28;20264;-69
2023/09/26 09:34:34;;;;;;;4.82;2.35;;;;;;;26.84;46.75;97099.09;2070924;28;20190;-70
2023/09/26 09:35:37;;;;;;;10.80;3.20;;;;;;;26.39;46.91;97094.78;2071336;28;20202;-70
2023/09/26 09:36:39;;;;;;;6.57;2.58;;;;;;;27.53;45.40;97099.03;2069978;28;20292;-69
2023/09/26 09:37:46;;;;;;;10.13;2.72;;;;;;;27.94;44.48;97094.72;2070986;28;20221;-69
2023/09/26 09:38:48;;;;;;;8.88;2.95;;;;;;;28.04;44.38;97092.72;2071587;28;20243;-69
2023/09/26 09:39:49;;;;;;;7.20;3.10;;;;;;;28.45;43.92;97095.34;2070465;28;20283;-68
2023/09/26 09:40:51;;;;;;;6.57;2.20;;;;;;;28.37;44.04;97095.38;2068921;28;20252;-68
2023/09/26 09:41:57;;;;;;;4.65;2.28;;;;;;;28.14;44.31;97093.38;2068561;28;20308;-69
2023/09/26 09:43:00;;;;;;;3.80;2.15;;;;;;;27.93;44.18;97093.84;2069038;28;20719;-68
2023/09/26 09:44:01;;;;;;;7.00;2.65;;;;;;;28.66;44.09;97096.66;2069342;28;20194;-68
2023/09/26 09:45:04;;;;;;;4.90;1.85;;;;;;;28.65;43.43;97087.75;2070249;28;20197;-68
2023/09/26 09:46:08;;;;;;;4.07;2.10;;;;;;;28.77;43.35;97090.97;2071291;28;20234;-69
2023/09/26 09:47:16;;;;;;;12.80;2.80;;;;;;;29.17;42.57;97089.09;2068185;28;20229;-69
2023/09/26 09:48:22;;;;;;;6.97;2.20;;;;;;;29.49;41.72;97089.13;2069454;28;20431;-69
2023/09/26 09:49:26;;;;;;;4.90;2.33;;;;;;;29.80;41.70;97094.47;2070624;28;20428;-68
2023/09/26 09:50:30;;;;;;;5.13;1.90;;;;;;;29.47;42.01;97088.47;2070003;28;20419;-69
2023/09/26 09:51:32;;;;;;;6.10;2.40;;;;;;;29.31;42.73;97075.97;2070641;28;20518;-69
2023/09/26 09:52:35;;;;;;;4.40;1.77;;;;;;;29.65;41.79;97083.66;2071471;28;20462;-68
2023/09/26 09:53:38;;;;;;;4.00;1.60;;;;;;;29.90;41.83;97083.50;2070767;28;20500;-69
2023/09/26 09:54:45;;;;;;;6.67;2.60;;;;;;;30.74;40.23;97079.88;2070470;28;20436;-69
2023/09/26 09:55:50;;;;;;;5.40;2.30;;;;;;;28.81;42.50;97086.06;2070487;28;20573;-69
2023/09/26 09:56:54;;;;;;;4.53;2.40;;;;;;;26.95;45.35;97081.06;2070788;28;20427;-69
2023/09/26 09:57:57;;;;;;;5.00;2.17;;;;;;;26.11;46.74;97083.41;2070144;28;20473;-69
2023/09/26 09:59:05;;;;;;;8.25;2.42;;;;;;;25.24;48.11;97089.19;2069903;28;20427;-68
2023/09/26 10:00:08;;;;;;;5.45;2.33;;;;;;;25.94;48.40;97083.25;2071249;28;20197;-69
2023/09/26 10:01:12;;;;;;;3.50;2.40;;;;;;;25.79;47.62;97085.63;2069980;28;20307;-69
2023/09/26 10:02:17;;;;;;;11.73;2.83;;;;;;;26.22;47.42;97083.13;2071158;28;20229;-69
2023/09/26 10:03:20;;;;;;;6.25;3.15;;;;;;;25.94;47.91;97083.25;2070026;28;20232;-69
2023/09/26 10:04:22;;;;;;;6.50;2.95;;;;;;;25.77;47.64;97090.28;2070725;28;20194;-68
2023/09/26 10:05:24;;;;;;;6.97;3.20;;;;;;;25.93;48.09;97084.22;2069306;28;20205;-69
2023/09/26 10:06:26;;;;;;;10.30;2.90;;;;;;;26.43;47.21;97087.28;2069938;28;20201;-69
2023/09/26 10:07:29;;;;;;;6.70;2.80;;;;;;;25.98;47.86;97083.75;2068914;28;20604;-69
2023/09/26 10:08:31;;;;;;;9.23;2.88;;;;;;;26.01;46.92;97081.59;2070495;28;20194;-69
2023/09/26 10:09:34;;;;;;;6.90;2.95;;;;;;;25.90;47.84;97085.38;2071022;28;20783;-69
2023/09/26 10:10:35;;;;;;;7.03;3.10;;;;;;;27.38;46.11;97069.28;2071371;28;20254;-69
2023/09/26 10:11:37;;;;;;;6.70;2.83;;;;;;;27.84;44.90;97071.53;2070742;28;20284;-69
2023/09/26 10:12:40;;;;;;;7.43;3.20;;;;;;;28.58;43.33;97076.06;2071197;28;20205;-69
2023/09/26 10:14:05;;;;;;;6.65;3.38;;;;;;;26.41;46.55;97079.44;2069866;28;20205;-69
2023/09/26 10:15:13;;;;;;;6.10;3.20;;;;;;;26.72;46.20;97062.84;2069617;28;20280;-69
2023/09/26 10:16:17;;;;;;;4.80;2.65;;;;;;;27.33;45.57;97068.94;2070905;28;20209;-69
2023/09/26 10:17:20;;;;;;;22.02;2.80;;;;;;;27.23;46.07;97070.94;2071151;28;20249;-69
2023/09/26 10:18:22;;;;;;;7.10;2.97;;;;;;;27.15;45.78;97071.75;2070750;28;20217;-70
2023/09/26 10:19:25;;;;;;;3.60;2.17;;;;;;;27.17;45.90;97071.59;2071902;28;20718;-69
2023/09/26 10:20:46;;;;;;;7.93;3.17;;;;;;;26.89;45.23;97074.50;2070248;28;20202;-69
2023/09/26 10:22:13;;;;;;;5.35;2.30;;;;;;;27.53;45.08;97068.69;2070752;28;20205;-69
2023/09/26 10:23:15;;;;;;;4.15;2.35;;;;;;;28.52;43.23;97072.19;2071458;28;20848;-69
2023/09/26 10:24:17;;;;;;;4.38;2.10;;;;;;;28.47;43.65;97066.50;2071272;28;20339;-69
2023/09/26 10:25:23;;;;;;;6.18;3.17;;;;;;;29.03;42.48;97073.72;2071601;28;20204;-69
2023/09/26 10:26:24;;;;;;;12.85;2.42;;;;;;;28.72;43.87;97069.16;2071724;28;20201;-70
2023/09/26 10:27:31;;;;;;;5.15;2.50;;;;;;;27.04;45.13;97070.19;2068693;28;20248;-69
2023/09/26 10:28:52;;;;;;;5.95;2.15;;;;;;;27.12;44.88;97068.56;2071000;28;20289;-70
2023/09/26 10:29:55;;;;;;;5.45;2.42;;;;;;;27.21;45.17;97071.09;2071335;28;20295;-69
2023/09/26 10:30:57;;;;;;;4.88;2.10;;;;;;;26.76;46.20;97069.59;2071628;28;20391;-69
2023/09/26 10:32:04;;;;;;;4.95;2.10;;;;;;;26.87;45.29;97069.31;2076109;28;20224;-70
2023/09/26 10:33:06;;;;;;;2.50;1.58;;;;;;;27.20;45.19;97071.28;2067254;28;20244;-69
2023/09/26 10:34:08;;;;;;;4.25;2.28;;;;;;;27.15;45.40;97066.38;2067114;28;20284;-70
2023/09/26 10:35:13;;;;;;;5.60;2.85;;;;;;;28.07;44.52;97070.09;2071519;28;20703;-69
2023/09/26 10:36:18;;;;;;;5.82;2.65;;;;;;;28.36;43.59;97066.84;2071858;28;20287;-69
2023/09/26 10:37:20;;;;;;;6.85;2.97;;;;;;;27.61;44.48;97062.50;2068392;28;20222;-69
2023/09/26 10:38:23;;;;;;;4.65;1.90;;;;;;;27.76;44.42;97058.16;2070403;28;20284;-69
2023/09/26 10:39:33;;;;;;;7.07;2.67;;;;;;;27.23;44.01;97062.06;2070193;28;20185;-69
2023/09/26 10:40:35;;;;;;;5.20;2.00;;;;;;;28.57;41.97;97060.94;2069468;28;20645;-70
2023/09/26 10:41:38;;;;;;;4.15;2.17;;;;;;;28.74;42.24;97056.38;2070211;28;20550;-69
2023/09/26 10:43:00;;;;;;;5.18;2.47;;;;;;;29.22;42.31;97047.44;2068827;28;20252;-70
2023/09/26 10:44:21;;;;;;;3.15;2.17;;;;;;;29.54;41.93;97053.66;2070187;28;20692;-70
2023/09/26 10:45:23;;;;;;;3.60;1.70;;;;;;;29.05;42.75;97057.41;2069479;28;20809;-69
2023/09/26 10:46:25;;;;;;;3.35;2.10;;;;;;;29.55;41.95;97045.38;2069123;28;20711;-69
2023/09/26 10:47:27;;;;;;;6.05;2.17;;;;;;;29.51;42.29;97045.91;2067632;28;20229;-69
2023/09/26 10:48:28;;;;;;;3.78;1.83;;;;;;;28.31;42.91;97055.78;2068481;28;20206;-70
2023/09/26 10:49:32;;;;;;;6.50;1.95;;;;;;;27.80;43.60;97050.59;2070041;28;20295;-69
2023/09/26 10:50:34;;;;;;;6.88;2.10;;;;;;;26.64;44.96;97047.59;2070600;28;20304;-69
2023/09/26 10:51:37;;;;;;;5.38;2.03;;;;;;;26.54;45.79;97047.69;2070921;28;20213;-69
2023/09/26 10:52:46;;;;;;;3.55;1.80;;;;;;;25.81;46.84;97051.53;2068292;28;20221;-69
2023/09/26 10:53:48;;;;;;;5.30;1.77;;;;;;;26.64;45.20;97049.41;2070529;28;20549;-69
2023/09/26 10:54:49;;;;;;;7.10;2.33;;;;;;;26.99;44.19;97040.38;2070441;28;20229;-70
2023/09/26 10:55:51;;;;;;;7.40;3.72;;;;;;;27.56;43.56;97051.44;2071163;28;20244;-67
2023/09/26 10:56:53;;;;;;;7.63;3.30;;;;;;;27.30;43.46;97046.97;2070943;28;20588;-68
2023/09/26 10:57:55;;;;;;;16.50;11.88;;;;;;;27.90;43.30;97048.59;2070886;28;20772;-68
2023/09/26 10:58:57;;;;;;;5.53;2.05;;;;;;;26.97;44.38;97044.22;2071150;28;20201;-68
2023/09/26 10:59:58;;;;;;;6.38;1.73;;;;;;;27.90;43.69;97037.84;2066836;28;20206;-66
2023/09/26 11:01:00;;;;;;;4.35;1.80;;;;;;;27.46;44.14;97047.03;2068518;28;20194;-67
2023/09/26 11:02:03;;;;;;;3.20;1.90;;;;;;;27.68;44.01;97045.56;2066177;28;20309;-68
2023/09/26 11:03:05;;;;;;;3.58;1.70;;;;;;;26.19;46.29;97046.81;2067204;28;20285;-69
2023/09/26 11:04:07;;;;;;;5.93;2.33;;;;;;;25.98;46.74;97046.28;2067882;28;20206;-69
2023/09/26 11:05:11;;;;;;;5.18;2.28;;;;;;;26.86;45.89;97043.50;2066441;28;20195;-69
2023/09/26 11:06:14;;;;;;;5.05;1.70;;;;;;;27.15;44.76;97042.28;2070483;28;20580;-69
2023/09/26 11:07:16;;;;;;;4.65;1.80;;;;;;;28.07;44.27;97046.75;2070006;28;20230;-69
2023/09/26 11:08:18;;;;;;;6.18;2.08;;;;;;;28.98;42.00;97051.91;2069899;28;20213;-69
2023/09/26 11:09:41;;;;;;;2.80;1.58;;;;;;;28.73;41.84;97048.50;2070559;28;20217;-69
2023/09/26 11:10:47;;;;;;;6.75;1.75;;;;;;;27.66;43.88;97038.69;2079317;28;20254;-69
2023/09/26 11:11:49;;;;;;;5.05;1.65;;;;;;;28.26;43.13;97036.66;2078153;28;20284;-69
2023/09/26 11:12:51;;;;;;;3.30;1.90;;;;;;;27.96;43.21;97031.81;2070238;28;20209;-70
2023/09/26 11:13:53;;;;;;;4.78;1.88;;;;;;;27.99;43.49;97042.19;2070179;28;20201;-69
2023/09/26 11:14:54;;;;;;;5.43;1.70;;;;;;;26.93;44.28;97045.53;2070178;28;20256;-69
2023/09/26 11:15:57;;;;;;;5.50;1.75;;;;;;;26.03;45.65;97041.31;2070499;28;20217;-69
2023/09/26 11:16:58;;;;;;;3.00;1.33;;;;;;;26.06;44.66;97041.88;2070234;28;20230;-69
2023/09/26 11:18:00;;;;;;;3.28;1.30;;;;;;;25.56;45.58;97040.63;2070596;28;20302;-69
2023/09/26 11:19:01;;;;;;;3.28;1.70;;;;;;;27.16;43.99;97035.91;2070883;28;20650;-69
2023/09/26 11:20:05;;;;;;;4.97;1.42;;;;;;;27.86;42.59;97033.84;2068806;28;20300;-69
2023/09/26 11:21:06;;;;;;;5.63;1.42;;;;;;;27.30;44.28;97030.91;2070645;28;20649;-69
2023/09/26 11:22:27;;;;;;;7.63;2.03;;;;;;;28.19;43.49;97031.97;2068582;28;20312;-69
2023/09/26 11:23:39;;;;;;;8.80;1.77;;;;;;;28.18;43.65;97030.31;2069668;28;20574;-69
2023/09/26 11:24:41;;;;;;;6.25;1.90;;;;;;;27.30;44.03;97038.94;2069063;28;20194;-69
2023/09/26 11:25:51;;;;;;;6.55;2.30;;;;;;;28.06;42.54;97036.19;2071336;28;20210;-69
2023/09/26 11:26:56;;;;;;;4.60;1.52;;;;;;;28.21;42.18;97023.75;2069903;28;20679;-68
2023/09/26 11:27:57;;;;;;;4.97;1.77;;;;;;;28.48;41.81;97033.25;2071305;28;20198;-68
2023/09/26 11:28:59;;;;;;;2.97;1.33;;;;;;;27.44;42.67;97038.34;2070633;28;20870;-69
2023/09/26 11:30:01;;;;;;;6.45;1.83;;;;;;;26.07;44.67;97034.72;2068697;28;20652;-69
2023/09/26 11:31:02;;;;;;;8.30;1.50;;;;;;;26.77;43.40;97033.78;2070282;28;20199;-68
2023/09/26 11:32:04;;;;;;;3.65;1.50;;;;;;;27.31;43.46;97033.44;2069180;28;20249;-68
2023/09/26 11:33:06;;;;;;;4.05;1.30;;;;;;;29.00;41.76;97039.13;2071012;28;20212;-69
2023/09/26 11:34:08;;;;;;;3.03;1.10;;;;;;;29.59;40.27;97037.81;2071606;28;20244;-70
2023/09/26 11:35:10;;;;;;;4.65;1.45;;;;;;;29.20;40.51;97036.84;2071495;28;20293;-69
2023/09/26 11:36:11;;;;;;;5.28;1.13;;;;;;;28.65;40.95;97033.22;2070049;28;20236;-69
2023/09/26 11:37:14;;;;;;;2.80;1.38;;;;;;;28.10;41.54;97032.16;2070813;28;20229;-68
2023/09/26 11:38:15;;;;;;;3.17;1.13;;;;;;;27.83;41.54;97032.34;2070388;28;20201;-68
2023/09/26 11:39:18;;;;;;;3.10;1.48;;;;;;;28.18;41.16;97030.31;2070307;28;20252;-69
2023/09/26 11:40:25;;;;;;;4.35;1.40;;;;;;;28.95;40.00;97036.13;2070598;28;20240;-69
2023/09/26 11:41:26;;;;;;;2.80;1.17;;;;;;;28.94;40.09;97034.47;2072747;28;20722;-68
2023/09/26 11:42:48;;;;;;;4.85;1.30;;;;;;;28.97;40.54;97026.88;2071052;28;20277;-69
2023/09/26 11:43:51;;;;;;;3.75;1.33;;;;;;;27.90;41.61;97027.13;2070971;28;20202;-69